createdAt,value
2019-05-21T00:00:06.474Z,13.97
2019-05-21T00:01:06.385Z,14.07
2019-05-21T00:02:06.370Z,14.02
2019-05-21T00:03:07.364Z,13.96
2019-05-21T00:04:06.434Z,14.04
2019-05-21T00:05:06.326Z,13.92
2019-05-21T00:06:06.317Z,13.89
2019-05-21T00:07:06.292Z,13.78
2019-05-21T00:08:09.834Z,13.84
2019-05-21T00:09:06.277Z,13.81
2019-05-21T00:10:09.665Z,13.71
2019-05-21T00:11:06.255Z,13.69
2019-05-21T00:12:06.243Z,13.64
2019-05-21T00:13:08.886Z,13.67
2019-05-21T00:14:06.253Z,13.63
2019-05-21T00:15:06.205Z,13.55
2019-05-21T00:16:06.197Z,13.59
2019-05-21T00:17:06.218Z,13.51
2019-05-21T00:18:06.203Z,13.52
2019-05-21T00:19:06.167Z,13.59
2019-05-21T00:20:06.148Z,13.51
2019-05-21T00:21:06.162Z,13.57
2019-05-21T00:22:06.132Z,13.59
2019-05-21T00:23:07.847Z,13.54
2019-05-21T00:24:06.112Z,13.44
2019-05-21T00:25:06.119Z,13.54
2019-05-21T00:26:06.106Z,13.48
2019-05-21T00:27:06.119Z,13.54
2019-05-21T00:28:07.106Z,13.54
2019-05-21T00:29:06.079Z,13.44
2019-05-21T00:30:09.163Z,13.49
2019-05-21T00:31:06.044Z,13.45
2019-05-21T00:32:06.020Z,13.41
2019-05-21T00:33:06.078Z,13.45
2019-05-21T00:34:06.123Z,13.33
2019-05-21T00:35:05.989Z,13.41
2019-05-21T00:36:05.976Z,13.41
2019-05-21T00:37:06.006Z,13.39
2019-05-21T00:38:05.966Z,13.33
2019-05-21T00:39:05.983Z,13.36
2019-05-21T00:40:05.926Z,13.30
2019-05-21T00:41:05.940Z,13.36
2019-05-21T00:42:05.983Z,13.38
2019-05-21T00:43:05.934Z,13.45
2019-05-21T00:44:05.915Z,13.33
2019-05-21T00:45:05.964Z,13.33
2019-05-21T00:46:05.875Z,13.44
2019-05-21T00:47:05.854Z,13.36
2019-05-21T00:48:06.004Z,13.38
2019-05-21T00:49:05.954Z,13.41
2019-05-21T00:50:05.819Z,13.36
2019-05-21T00:51:05.810Z,13.36
2019-05-21T00:52:08.568Z,13.44
2019-05-21T00:53:05.787Z,13.42
2019-05-21T00:54:05.809Z,13.41
2019-05-21T00:55:05.759Z,13.41
2019-05-21T00:56:05.764Z,13.36
2019-05-21T00:57:05.769Z,13.32
2019-05-21T00:58:05.822Z,13.45
2019-05-21T00:59:05.751Z,13.45
2019-05-21T01:00:05.875Z,13.29
2019-05-21T01:01:05.740Z,13.33
2019-05-21T01:02:05.679Z,13.33
2019-05-21T01:03:05.671Z,13.28
2019-05-21T01:04:06.353Z,13.30
2019-05-21T01:05:05.653Z,13.30
2019-05-21T01:06:05.635Z,13.33
2019-05-21T01:07:05.638Z,13.33
2019-05-21T01:08:05.638Z,13.36
2019-05-21T01:09:09.390Z,13.33
2019-05-21T01:10:05.620Z,13.38
2019-05-21T01:11:05.614Z,13.29
2019-05-21T01:12:05.646Z,13.42
2019-05-21T01:13:05.606Z,13.44
2019-05-21T01:14:05.580Z,13.41
2019-05-21T01:15:05.555Z,13.42
2019-05-21T01:16:05.585Z,13.45
2019-05-21T01:17:05.520Z,13.49
2019-05-21T01:18:05.515Z,13.41
2019-05-21T01:19:07.363Z,13.30
2019-05-21T01:20:05.481Z,13.41
2019-05-21T01:21:05.494Z,13.42
2019-05-21T01:22:05.509Z,13.38
2019-05-21T01:23:05.451Z,13.29
2019-05-21T01:24:07.152Z,13.33
2019-05-21T01:25:05.529Z,13.29
2019-05-21T01:26:05.435Z,13.32
2019-05-21T01:27:05.447Z,13.29
2019-05-21T01:28:05.397Z,13.33
2019-05-21T01:29:05.409Z,13.30
2019-05-21T01:30:05.390Z,13.17
2019-05-21T01:31:05.424Z,13.26
2019-05-21T01:32:05.370Z,13.29
2019-05-21T01:33:05.351Z,13.30
2019-05-21T01:34:07.391Z,13.25
2019-05-21T01:35:16.781Z,13.25
2019-05-21T01:36:06.317Z,13.30
2019-05-21T01:37:05.319Z,13.29
2019-05-21T01:38:05.324Z,13.22
2019-05-21T01:39:05.348Z,13.25
2019-05-21T01:40:05.262Z,13.33
2019-05-21T01:41:05.378Z,13.20
2019-05-21T01:42:05.249Z,13.17
2019-05-21T01:43:05.246Z,13.25
2019-05-21T01:44:05.851Z,13.26
2019-05-21T01:45:05.210Z,13.26
2019-05-21T01:46:05.204Z,13.30
2019-05-21T01:47:05.192Z,13.28
2019-05-21T01:48:05.196Z,13.22
2019-05-21T01:49:10.364Z,13.20
2019-05-21T01:50:05.186Z,13.20
2019-05-21T01:51:05.157Z,13.28
2019-05-21T01:52:05.140Z,13.33
2019-05-21T01:53:05.130Z,13.32
2019-05-21T01:54:05.171Z,13.29
2019-05-21T01:55:05.095Z,13.29
2019-05-21T01:56:05.220Z,13.19
2019-05-21T01:57:06.188Z,13.29
2019-05-21T01:58:05.064Z,13.33
2019-05-21T01:59:05.330Z,13.32
2019-05-21T02:00:05.093Z,13.38
2019-05-21T02:01:05.036Z,13.38
2019-05-21T02:02:05.021Z,13.32
2019-05-21T02:03:05.023Z,13.38
2019-05-21T02:04:05.033Z,13.32
2019-05-21T02:05:04.994Z,13.44
2019-05-21T02:06:04.974Z,13.38
2019-05-21T02:07:04.990Z,13.36
2019-05-21T02:08:04.949Z,13.41
2019-05-21T02:09:04.942Z,13.44
2019-05-21T02:10:04.995Z,13.41
2019-05-21T02:11:04.930Z,13.55
2019-05-21T02:12:04.971Z,13.54
2019-05-21T02:13:04.895Z,13.60
2019-05-21T02:14:04.881Z,13.51
2019-05-21T02:15:05.882Z,13.52
2019-05-21T02:16:04.871Z,13.52
2019-05-21T02:17:04.860Z,13.51
2019-05-21T02:18:04.870Z,13.46
2019-05-21T02:19:04.835Z,13.51
2019-05-21T02:20:08.172Z,13.51
2019-05-21T02:21:04.915Z,13.48
2019-05-21T02:22:04.798Z,13.48
2019-05-21T02:23:04.805Z,13.52
2019-05-21T02:24:04.799Z,13.55
2019-05-21T02:25:04.798Z,13.60
2019-05-21T02:26:04.753Z,13.59
2019-05-21T02:27:04.832Z,13.51
2019-05-21T02:28:04.774Z,13.60
2019-05-21T02:29:04.736Z,13.60
2019-05-21T02:30:06.756Z,13.57
2019-05-21T02:31:04.745Z,13.63
2019-05-21T02:32:04.693Z,13.59
2019-05-21T02:33:04.674Z,13.52
2019-05-21T02:34:04.677Z,13.57
2019-05-21T02:35:04.688Z,13.55
2019-05-21T02:36:04.651Z,13.62
2019-05-21T02:37:06.333Z,13.70
2019-05-21T02:38:04.627Z,13.60
2019-05-21T02:39:04.629Z,13.60
2019-05-21T02:40:04.624Z,13.66
2019-05-21T02:41:04.590Z,13.62
2019-05-21T02:42:04.579Z,13.64
2019-05-21T02:43:04.605Z,13.66
2019-05-21T02:44:04.570Z,13.64
2019-05-21T02:45:04.563Z,13.63
2019-05-21T02:46:04.538Z,13.63
2019-05-21T02:47:04.533Z,13.69
2019-05-21T02:48:04.571Z,13.66
2019-05-21T02:49:04.516Z,13.66
2019-05-21T02:50:04.537Z,13.66
2019-05-21T02:51:04.489Z,13.66
2019-05-21T02:52:04.478Z,13.63
2019-05-21T02:53:04.508Z,13.70
2019-05-21T02:54:04.470Z,13.70
2019-05-21T02:55:04.466Z,13.84
2019-05-21T02:56:04.434Z,13.69
2019-05-21T02:57:04.462Z,13.79
2019-05-21T02:58:04.495Z,13.77
2019-05-21T02:59:04.395Z,13.84
2019-05-21T03:00:06.395Z,13.75
2019-05-21T03:01:04.370Z,13.75
2019-05-21T03:02:04.405Z,13.81
2019-05-21T03:03:04.382Z,13.75
2019-05-21T03:04:06.149Z,13.78
2019-05-21T03:05:04.363Z,13.81
2019-05-21T03:06:13.724Z,13.75
2019-05-21T03:07:05.296Z,13.81
2019-05-21T03:08:04.307Z,13.82
2019-05-21T03:09:04.282Z,13.78
2019-05-21T03:10:04.297Z,13.78
2019-05-21T03:11:04.269Z,13.84
2019-05-21T03:12:04.251Z,13.82
2019-05-21T03:13:04.232Z,13.75
2019-05-21T03:14:04.286Z,13.81
2019-05-21T03:15:04.875Z,13.79
2019-05-21T03:16:04.214Z,13.73
2019-05-21T03:17:04.198Z,13.71
2019-05-21T03:18:04.206Z,13.71
2019-05-21T03:19:04.171Z,13.64
2019-05-21T03:20:04.201Z,13.78
2019-05-21T03:21:04.235Z,13.79
2019-05-21T03:22:04.169Z,13.77
2019-05-21T03:23:04.123Z,13.78
2019-05-21T03:24:04.118Z,13.78
2019-05-21T03:25:04.144Z,13.70
2019-05-21T03:26:04.153Z,13.70
2019-05-21T03:27:04.078Z,13.73
2019-05-21T03:28:04.119Z,13.77
2019-05-21T03:29:04.089Z,13.67
2019-05-21T03:30:04.916Z,13.81
2019-05-21T03:31:04.033Z,13.79
2019-05-21T03:32:04.026Z,13.79
2019-05-21T03:33:04.014Z,13.70
2019-05-21T03:34:04.044Z,13.69
2019-05-21T03:35:04.021Z,13.66
2019-05-21T03:36:03.981Z,13.70
2019-05-21T03:37:03.964Z,13.70
2019-05-21T03:38:03.962Z,13.79
2019-05-21T03:39:05.009Z,13.71
2019-05-21T03:40:03.947Z,13.75
2019-05-21T03:41:03.931Z,13.75
2019-05-21T03:42:03.917Z,13.84
2019-05-21T03:43:03.911Z,13.62
2019-05-21T03:44:03.904Z,13.66
2019-05-21T03:45:07.508Z,13.69
2019-05-21T03:46:03.909Z,13.67
2019-05-21T03:47:03.860Z,13.69
2019-05-21T03:48:03.851Z,13.70
2019-05-21T03:49:03.881Z,13.77
2019-05-21T03:50:03.867Z,13.69
2019-05-21T03:51:03.844Z,13.70
2019-05-21T03:52:03.797Z,13.69
2019-05-21T03:53:03.785Z,13.63
2019-05-21T03:54:03.790Z,13.70
2019-05-21T03:55:03.818Z,13.67
2019-05-21T03:56:04.823Z,13.66
2019-05-21T03:57:03.761Z,13.66
2019-05-21T03:58:03.792Z,13.69
2019-05-21T03:59:03.721Z,13.69
2019-05-21T04:00:05.394Z,13.62
2019-05-21T04:01:03.703Z,13.62
2019-05-21T04:02:03.744Z,13.77
2019-05-21T04:03:03.685Z,13.62
2019-05-21T04:04:03.662Z,13.67
2019-05-21T04:05:03.696Z,13.69
2019-05-21T04:06:03.728Z,13.67
2019-05-21T04:07:03.637Z,13.66
2019-05-21T04:08:03.644Z,13.67
2019-05-21T04:09:03.622Z,13.67
2019-05-21T04:10:03.627Z,13.77
2019-05-21T04:11:03.593Z,13.70
2019-05-21T04:12:03.592Z,13.66
2019-05-21T04:13:03.571Z,13.62
2019-05-21T04:14:03.596Z,13.67
2019-05-21T04:15:03.622Z,13.67
2019-05-21T04:16:03.561Z,13.66
2019-05-21T04:17:03.598Z,13.63
2019-05-21T04:18:03.516Z,13.66
2019-05-21T04:19:03.502Z,13.77
2019-05-21T04:20:03.514Z,13.71
2019-05-21T04:21:03.496Z,13.73
2019-05-21T04:22:03.503Z,13.70
2019-05-21T04:23:03.465Z,13.79
2019-05-21T04:24:03.442Z,13.67
2019-05-21T04:25:03.491Z,13.71
2019-05-21T04:26:03.467Z,13.67
2019-05-21T04:27:03.422Z,13.62
2019-05-21T04:28:03.427Z,13.66
2019-05-21T04:29:03.407Z,13.66
2019-05-21T04:30:03.456Z,13.77
2019-05-21T04:31:03.397Z,13.73
2019-05-21T04:32:03.459Z,13.69
2019-05-21T04:33:03.363Z,13.66
2019-05-21T04:34:03.347Z,13.66
2019-05-21T04:35:03.361Z,13.63
2019-05-21T04:36:03.313Z,13.63
2019-05-21T04:37:10.932Z,13.60
2019-05-21T04:38:04.335Z,13.69
2019-05-21T04:39:03.289Z,13.55
2019-05-21T04:40:03.357Z,13.59
2019-05-21T04:41:03.295Z,13.59
2019-05-21T04:42:03.343Z,13.64
2019-05-21T04:43:03.249Z,13.62
2019-05-21T04:44:03.235Z,13.63
2019-05-21T04:45:03.267Z,13.64
2019-05-21T04:46:03.346Z,13.64
2019-05-21T04:47:03.235Z,13.63
2019-05-21T04:48:03.184Z,13.55
2019-05-21T04:49:03.159Z,13.49
2019-05-21T04:50:03.180Z,13.54
2019-05-21T04:51:03.149Z,13.55
2019-05-21T04:52:03.161Z,13.49
2019-05-21T04:53:03.196Z,13.49
2019-05-21T04:54:03.142Z,13.41
2019-05-21T04:55:03.920Z,13.42
2019-05-21T04:56:03.103Z,13.44
2019-05-21T04:57:03.095Z,13.45
2019-05-21T04:58:03.075Z,13.41
2019-05-21T04:59:03.054Z,13.44
2019-05-21T05:00:03.068Z,13.46
2019-05-21T05:01:03.059Z,13.54
2019-05-21T05:02:03.014Z,13.49
2019-05-21T05:03:03.008Z,13.44
2019-05-21T05:04:03.018Z,13.45
2019-05-21T05:05:03.057Z,13.41
2019-05-21T05:06:02.988Z,13.45
2019-05-21T05:07:03.117Z,13.45
2019-05-21T05:08:02.961Z,13.44
2019-05-21T05:09:03.014Z,13.45
2019-05-21T05:10:04.898Z,13.48
2019-05-21T05:11:02.924Z,13.54
2019-05-21T05:12:02.907Z,13.57
2019-05-21T05:13:02.905Z,13.62
2019-05-21T05:14:02.904Z,13.51
2019-05-21T05:15:02.913Z,13.49
2019-05-21T05:16:04.267Z,13.45
2019-05-21T05:17:02.859Z,13.52
2019-05-21T05:18:02.879Z,13.57
2019-05-21T05:19:02.894Z,13.51
2019-05-21T05:20:02.829Z,13.52
2019-05-21T05:21:02.863Z,13.52
2019-05-21T05:22:02.815Z,13.60
2019-05-21T05:23:02.816Z,13.48
2019-05-21T05:24:02.778Z,13.48
2019-05-21T05:25:02.789Z,13.52
2019-05-21T05:26:03.456Z,13.51
2019-05-21T05:27:02.737Z,13.54
2019-05-21T05:28:02.740Z,13.49
2019-05-21T05:29:02.754Z,13.52
2019-05-21T05:30:02.790Z,13.54
2019-05-21T05:31:02.727Z,13.60
2019-05-21T05:32:02.693Z,13.51
2019-05-21T05:33:02.674Z,13.48
2019-05-21T05:34:02.666Z,13.38
2019-05-21T05:35:02.663Z,13.41
2019-05-21T05:36:02.680Z,13.26
2019-05-21T05:37:02.700Z,13.28
2019-05-21T05:38:02.630Z,13.30
2019-05-21T05:39:02.613Z,13.33
2019-05-21T05:40:02.623Z,13.30
2019-05-21T05:41:02.614Z,13.36
2019-05-21T05:42:02.585Z,13.30
2019-05-21T05:43:02.626Z,13.26
2019-05-21T05:44:02.587Z,13.28
2019-05-21T05:45:02.542Z,13.20
2019-05-21T05:46:02.586Z,13.23
2019-05-21T05:47:02.580Z,13.29
2019-05-21T05:48:02.580Z,13.36
2019-05-21T05:49:02.582Z,13.33
2019-05-21T05:50:02.505Z,13.29
2019-05-21T05:51:02.540Z,13.29
2019-05-21T05:52:02.466Z,13.39
2019-05-21T05:53:02.459Z,13.44
2019-05-21T05:54:02.509Z,13.42
2019-05-21T05:55:02.433Z,13.33
2019-05-21T05:56:02.539Z,13.33
2019-05-21T05:57:02.423Z,13.33
2019-05-21T05:58:02.463Z,13.41
2019-05-21T05:59:02.398Z,13.44
2019-05-21T06:00:02.393Z,13.48
2019-05-21T06:01:02.410Z,13.33
2019-05-21T06:02:02.363Z,13.42
2019-05-21T06:03:02.382Z,13.44
2019-05-21T06:04:02.376Z,13.49
2019-05-21T06:05:02.406Z,13.32
2019-05-21T06:06:03.088Z,13.38
2019-05-21T06:07:04.262Z,13.42
2019-05-21T06:08:02.652Z,13.45
2019-05-21T06:09:02.424Z,13.49
2019-05-21T06:10:02.621Z,13.52
2019-05-21T06:11:02.996Z,13.49
2019-05-21T06:12:03.325Z,13.41
2019-05-21T06:13:02.546Z,13.51
2019-05-21T06:14:02.342Z,13.52
2019-05-21T06:15:02.712Z,13.45
2019-05-21T06:16:02.632Z,13.54
2019-05-21T06:17:02.402Z,13.48
2019-05-21T06:18:02.257Z,13.36
2019-05-21T06:19:02.370Z,13.29
2019-05-21T06:20:02.483Z,13.30
2019-05-21T06:21:02.192Z,13.39
2019-05-21T06:22:02.152Z,13.49
2019-05-21T06:23:02.376Z,13.25
2019-05-21T06:24:04.364Z,13.19
2019-05-21T06:25:03.416Z,13.29
2019-05-21T06:26:05.739Z,13.39
2019-05-21T06:27:06.060Z,13.42
2019-05-21T06:28:02.106Z,13.30
2019-05-21T06:29:02.218Z,13.33
2019-05-21T06:30:02.185Z,13.32
2019-05-21T06:31:07.712Z,13.29
2019-05-21T06:32:02.174Z,13.30
2019-05-21T06:33:02.296Z,13.32
2019-05-21T06:34:02.165Z,13.30
2019-05-21T06:35:02.136Z,13.41
2019-05-21T06:36:10.557Z,13.44
2019-05-21T06:37:02.099Z,13.51
2019-05-21T06:38:16.484Z,13.57
2019-05-21T06:39:04.876Z,13.52
2019-05-21T06:40:01.990Z,13.49
2019-05-21T06:41:04.895Z,13.45
2019-05-21T06:42:02.884Z,13.59
2019-05-21T06:43:01.920Z,13.48
2019-05-21T06:44:05.166Z,13.59
2019-05-21T06:45:24.182Z,13.54
2019-05-21T06:46:01.918Z,13.49
2019-05-21T06:47:03.150Z,13.46
2019-05-21T06:49:36.258Z,13.54
2019-05-21T06:50:39.347Z,13.41
2019-05-21T06:51:36.221Z,13.48
2019-05-21T06:52:36.240Z,13.48
2019-05-21T06:53:36.206Z,13.38
2019-05-21T06:54:36.198Z,13.32
2019-05-21T06:55:39.414Z,13.42
2019-05-21T06:56:36.163Z,13.44
2019-05-21T06:57:36.180Z,13.41
2019-05-21T06:58:36.168Z,13.20
2019-05-21T06:59:36.220Z,13.26
2019-05-21T07:00:36.924Z,13.33
2019-05-21T07:01:36.153Z,13.30
2019-05-21T07:02:36.808Z,13.25
2019-05-21T07:03:36.117Z,13.38
2019-05-21T07:04:36.084Z,13.20
2019-05-21T07:05:36.095Z,13.28
2019-05-21T07:06:36.063Z,13.41
2019-05-21T07:07:36.047Z,13.36
2019-05-21T07:08:36.792Z,13.44
2019-05-21T07:09:36.025Z,13.32
2019-05-21T07:10:36.114Z,13.25
2019-05-21T07:11:36.078Z,13.26
2019-05-21T07:12:36.015Z,13.20
2019-05-21T07:13:35.977Z,13.29
2019-05-21T07:14:35.989Z,13.26
2019-05-21T07:15:35.976Z,13.22
2019-05-21T07:16:39.344Z,13.20
2019-05-21T07:17:36.238Z,13.29
2019-05-21T07:18:35.925Z,13.26
2019-05-21T07:19:35.910Z,13.22
2019-05-21T07:20:35.905Z,13.29
2019-05-21T07:21:35.923Z,13.23
2019-05-21T07:22:36.041Z,13.26
2019-05-21T07:23:35.878Z,13.29
2019-05-21T07:24:35.886Z,13.19
2019-05-21T07:25:35.854Z,13.25
2019-05-21T07:26:35.869Z,13.19
2019-05-21T07:27:35.837Z,13.25
2019-05-21T07:28:35.824Z,13.32
2019-05-21T07:29:35.846Z,13.39
2019-05-21T07:30:35.798Z,13.36
2019-05-21T07:31:35.800Z,13.30
2019-05-21T07:32:35.840Z,13.22
2019-05-21T07:33:35.759Z,13.30
2019-05-21T07:34:35.765Z,13.19
2019-05-21T07:35:35.736Z,13.23
2019-05-21T07:36:35.747Z,13.19
2019-05-21T07:37:36.280Z,13.30
2019-05-21T07:38:52.006Z,13.32
2019-05-21T07:39:36.812Z,13.29
2019-05-21T07:40:35.723Z,13.30
2019-05-21T07:41:35.702Z,13.29
2019-05-21T07:42:35.833Z,13.26
2019-05-21T07:43:35.705Z,13.22
2019-05-21T07:44:35.634Z,13.23
2019-05-21T07:45:35.615Z,13.23
2019-05-21T07:46:39.613Z,13.33
2019-05-21T07:47:35.603Z,13.29
2019-05-21T07:48:35.605Z,13.19
2019-05-21T07:49:35.571Z,13.17
2019-05-21T07:50:35.671Z,13.14
2019-05-21T07:51:43.297Z,13.29
2019-05-21T07:52:35.556Z,13.15
2019-05-21T07:53:35.535Z,13.10
2019-05-21T07:54:35.526Z,13.08
2019-05-21T07:55:35.529Z,13.15
2019-05-21T07:56:36.613Z,13.08
2019-05-21T07:57:35.487Z,13.17
2019-05-21T07:58:36.292Z,13.28
2019-05-21T07:59:35.496Z,13.32
2019-05-21T08:00:35.484Z,13.29
2019-05-21T08:01:37.343Z,13.20
2019-05-21T08:02:35.499Z,13.25
2019-05-21T08:03:35.435Z,13.28
2019-05-21T08:04:35.461Z,13.10
2019-05-21T08:05:35.422Z,13.10
2019-05-21T08:06:36.014Z,13.14
2019-05-21T08:07:35.403Z,13.12
2019-05-21T08:08:35.403Z,13.26
2019-05-21T08:09:35.368Z,13.12
2019-05-21T08:10:35.422Z,13.25
2019-05-21T08:11:40.866Z,13.33
2019-05-21T08:12:39.524Z,13.23
2019-05-21T08:13:35.322Z,13.38
2019-05-21T08:14:35.318Z,13.33
2019-05-21T08:15:36.456Z,13.42
2019-05-21T08:16:35.329Z,13.44
2019-05-21T08:17:35.554Z,13.41
2019-05-21T08:18:35.409Z,13.42
2019-05-21T08:19:35.277Z,13.54
2019-05-21T08:20:35.241Z,13.52
2019-05-21T08:21:35.940Z,13.60
2019-05-21T08:22:35.221Z,13.54
2019-05-21T08:23:35.231Z,13.64
2019-05-21T08:24:35.487Z,13.67
2019-05-21T08:25:35.186Z,13.67
2019-05-21T08:26:39.936Z,13.73
2019-05-21T08:27:35.167Z,13.64
2019-05-21T08:28:35.163Z,13.79
2019-05-21T08:29:35.171Z,13.73
2019-05-21T08:30:35.253Z,13.77
2019-05-21T08:31:35.224Z,13.64
2019-05-21T08:32:35.191Z,13.70
2019-05-21T08:33:35.157Z,13.54
2019-05-21T08:34:35.093Z,13.75
2019-05-21T08:35:35.115Z,13.88
2019-05-21T08:36:38.360Z,13.85
2019-05-21T08:37:35.875Z,13.88
2019-05-21T08:38:35.047Z,13.91
2019-05-21T08:39:35.085Z,13.85
2019-05-21T08:40:35.146Z,13.69
2019-05-21T08:41:35.944Z,13.77
2019-05-21T08:42:34.989Z,13.52
2019-05-21T08:43:35.168Z,13.62
2019-05-21T08:44:34.970Z,13.54
2019-05-21T08:45:35.066Z,13.60
2019-05-21T08:46:43.518Z,13.69
2019-05-21T08:47:34.944Z,13.75
2019-05-21T08:48:34.946Z,13.62
2019-05-21T08:49:34.919Z,13.62
2019-05-21T08:50:34.907Z,13.67
2019-05-21T08:51:58.839Z,13.63
2019-05-21T08:52:34.938Z,13.64
2019-05-21T08:53:34.937Z,13.71
2019-05-21T08:54:34.998Z,13.66
2019-05-21T08:55:34.946Z,13.70
2019-05-21T08:56:38.323Z,13.66
2019-05-21T08:57:34.933Z,13.69
2019-05-21T08:58:34.866Z,13.60
2019-05-21T08:59:34.808Z,13.63
2019-05-21T09:00:34.789Z,13.75
2019-05-21T09:01:50.461Z,13.64
2019-05-21T09:02:35.168Z,13.60
2019-05-21T09:03:36.371Z,13.67
2019-05-21T09:04:45.795Z,13.66
2019-05-21T09:05:35.768Z,13.62
2019-05-21T09:06:42.968Z,13.66
2019-05-21T09:07:34.711Z,13.62
2019-05-21T09:08:34.736Z,13.69
2019-05-21T09:09:49.420Z,13.69
2019-05-21T09:10:35.693Z,13.81
2019-05-21T09:11:37.819Z,13.64
2019-05-21T09:12:34.643Z,13.85
2019-05-21T09:13:34.680Z,14.00
2019-05-21T09:14:34.631Z,13.95
2019-05-21T09:15:34.998Z,13.73
2019-05-21T09:16:44.836Z,13.75
2019-05-21T09:17:35.328Z,13.70
2019-05-21T09:18:34.577Z,13.64
2019-05-21T09:19:36.618Z,13.78
2019-05-21T09:20:34.768Z,13.63
2019-05-21T09:21:40.514Z,13.63
2019-05-21T09:22:34.572Z,13.63
2019-05-21T09:23:34.618Z,13.77
2019-05-21T09:24:35.587Z,13.64
2019-05-21T09:25:34.576Z,13.70
2019-05-21T09:26:34.546Z,13.79
2019-05-21T09:27:34.525Z,13.79
2019-05-21T09:28:34.529Z,13.88
2019-05-21T09:29:34.505Z,13.81
2019-05-21T09:30:34.541Z,13.75
2019-05-21T09:31:55.672Z,13.70
2019-05-21T09:32:34.479Z,13.70
2019-05-21T09:33:34.440Z,13.66
2019-05-21T09:34:47.956Z,13.55
2019-05-21T09:35:35.421Z,13.64
2019-05-21T09:36:56.445Z,13.62
2019-05-21T09:37:34.386Z,13.59
2019-05-21T09:38:34.356Z,13.63
2019-05-21T09:39:34.574Z,13.54
2019-05-21T09:40:34.331Z,13.59
2019-05-21T09:41:43.004Z,13.54
2019-05-21T09:42:34.320Z,13.69
2019-05-21T09:43:34.433Z,13.57
2019-05-21T09:44:34.352Z,13.54
2019-05-21T09:45:34.282Z,13.57
2019-05-21T09:46:42.450Z,13.51
2019-05-21T09:47:34.424Z,13.66
2019-05-21T09:48:34.243Z,13.54
2019-05-21T09:49:34.224Z,13.64
2019-05-21T09:50:34.403Z,13.54
2019-05-21T09:51:34.249Z,13.67
2019-05-21T09:52:34.245Z,13.63
2019-05-21T09:53:34.635Z,13.69
2019-05-21T09:54:34.211Z,13.71
2019-05-21T09:55:34.324Z,13.64
2019-05-21T09:56:35.995Z,13.82
2019-05-21T09:57:34.152Z,13.71
2019-05-21T09:58:34.160Z,13.70
2019-05-21T09:59:34.132Z,13.70
2019-05-21T10:00:34.137Z,13.67
2019-05-21T10:01:35.812Z,13.79
2019-05-21T10:02:34.097Z,13.92
2019-05-21T10:03:34.075Z,13.88
2019-05-21T10:04:35.006Z,13.81
2019-05-21T10:05:34.843Z,13.78
2019-05-21T10:06:35.145Z,13.81
2019-05-21T10:07:39.779Z,13.84
2019-05-21T10:08:37.230Z,13.84
2019-05-21T10:09:34.766Z,13.92
2019-05-21T10:10:34.163Z,13.92
2019-05-21T10:11:36.017Z,13.75
2019-05-21T10:12:34.229Z,13.97
2019-05-21T10:13:34.016Z,13.91
2019-05-21T10:14:34.511Z,14.07
2019-05-21T10:15:34.018Z,14.07
2019-05-21T10:16:34.058Z,14.04
2019-05-21T10:17:35.478Z,14.21
2019-05-21T10:18:33.975Z,14.14
2019-05-21T10:19:34.022Z,14.20
2019-05-21T10:20:34.237Z,14.40
2019-05-21T10:21:33.936Z,14.51
2019-05-21T10:22:33.930Z,14.51
2019-05-21T10:23:33.918Z,14.50
2019-05-21T10:24:34.122Z,14.50
2019-05-21T10:25:34.041Z,14.57
2019-05-21T10:26:33.917Z,14.57
2019-05-21T10:27:37.011Z,14.52
2019-05-21T10:28:34.314Z,14.40
2019-05-21T10:29:33.825Z,14.47
2019-05-21T10:30:34.043Z,14.54
2019-05-21T10:31:33.791Z,14.46
2019-05-21T10:32:33.784Z,14.51
2019-05-21T10:33:33.821Z,14.55
2019-05-21T10:34:36.452Z,14.43
2019-05-21T10:35:34.475Z,14.47
2019-05-21T10:36:33.837Z,14.69
2019-05-21T10:37:33.737Z,14.64
2019-05-21T10:38:33.755Z,14.72
2019-05-21T10:39:33.676Z,14.83
2019-05-21T10:40:33.668Z,14.81
2019-05-21T10:41:33.664Z,14.98
2019-05-21T10:42:34.492Z,15.21
2019-05-21T10:43:33.627Z,15.10
2019-05-21T10:44:33.614Z,14.99
2019-05-21T10:45:34.887Z,14.81
2019-05-21T10:46:33.678Z,15.03
2019-05-21T10:47:33.626Z,15.02
2019-05-21T10:48:34.472Z,14.89
2019-05-21T10:49:33.557Z,14.83
2019-05-21T10:50:33.584Z,14.84
2019-05-21T10:51:34.362Z,14.78
2019-05-21T10:52:33.582Z,14.72
2019-05-21T10:53:33.554Z,14.78
2019-05-21T10:54:34.313Z,14.99
2019-05-21T10:55:33.565Z,14.78
2019-05-21T10:56:46.761Z,14.83
2019-05-21T10:57:34.925Z,14.81
2019-05-21T10:58:33.474Z,14.86
2019-05-21T10:59:33.502Z,14.84
2019-05-21T11:00:33.500Z,15.01
2019-05-21T11:01:34.420Z,15.01
2019-05-21T11:02:33.475Z,14.94
2019-05-21T11:03:33.411Z,14.96
2019-05-21T11:04:33.520Z,14.98
2019-05-21T11:05:33.440Z,14.98
2019-05-21T11:06:33.427Z,15.01
2019-05-21T11:07:33.659Z,14.81
2019-05-21T11:08:33.386Z,14.73
2019-05-21T11:09:33.374Z,14.81
2019-05-21T11:10:33.454Z,14.75
2019-05-21T11:11:33.463Z,14.81
2019-05-21T11:12:33.334Z,14.83
2019-05-21T11:13:33.305Z,14.96
2019-05-21T11:14:33.639Z,15.09
2019-05-21T11:15:33.272Z,15.21
2019-05-21T11:16:33.310Z,15.27
2019-05-21T11:17:48.313Z,15.19
2019-05-21T11:18:34.252Z,15.28
2019-05-21T11:19:33.235Z,15.25
2019-05-21T11:20:33.212Z,15.32
2019-05-21T11:21:33.499Z,15.27
2019-05-21T11:22:33.649Z,15.44
2019-05-21T11:23:33.587Z,15.43
2019-05-21T11:24:33.303Z,15.36
2019-05-21T11:25:33.198Z,15.28
2019-05-21T11:26:33.148Z,15.46
2019-05-21T11:27:33.179Z,15.60
2019-05-21T11:28:33.133Z,15.62
2019-05-21T11:29:33.125Z,15.64
2019-05-21T11:30:33.253Z,15.57
2019-05-21T11:31:33.098Z,15.25
2019-05-21T11:32:33.104Z,15.25
2019-05-21T11:33:33.075Z,15.41
2019-05-21T11:34:33.115Z,15.38
2019-05-21T11:35:35.961Z,15.57
2019-05-21T11:36:33.037Z,15.54
2019-05-21T11:37:33.979Z,15.60
2019-05-21T11:38:40.084Z,15.78
2019-05-21T11:39:34.017Z,15.89
2019-05-21T11:40:33.019Z,15.76
2019-05-21T11:41:32.991Z,15.84
2019-05-21T11:42:32.994Z,15.83
2019-05-21T11:43:32.952Z,15.89
2019-05-21T11:44:32.959Z,15.80
2019-05-21T11:45:33.289Z,15.76
2019-05-21T11:46:32.925Z,15.87
2019-05-21T11:47:32.935Z,15.92
2019-05-21T11:48:32.957Z,15.89
2019-05-21T11:49:32.902Z,15.74
2019-05-21T11:50:32.886Z,15.78
2019-05-21T11:51:32.864Z,15.82
2019-05-21T11:52:34.520Z,15.86
2019-05-21T11:53:32.842Z,15.65
2019-05-21T11:54:32.872Z,15.74
2019-05-21T11:55:32.832Z,15.83
2019-05-21T11:56:36.083Z,15.84
2019-05-21T11:57:32.846Z,15.86
2019-05-21T11:58:39.285Z,15.82
2019-05-21T11:59:33.801Z,15.89
2019-05-21T12:00:32.769Z,15.94
2019-05-21T12:01:32.886Z,15.93
2019-05-21T12:02:32.818Z,15.89
2019-05-21T12:03:32.780Z,15.84
2019-05-21T12:04:32.748Z,15.78
2019-05-21T12:05:32.766Z,15.87
2019-05-21T12:06:32.703Z,15.89
2019-05-21T12:07:32.796Z,15.80
2019-05-21T12:08:32.692Z,15.74
2019-05-21T12:09:32.671Z,15.75
2019-05-21T12:10:32.654Z,15.65
2019-05-21T12:11:32.644Z,15.64
2019-05-21T12:12:32.670Z,15.60
2019-05-21T12:13:32.701Z,15.57
2019-05-21T12:14:32.630Z,15.62
2019-05-21T12:15:32.696Z,15.43
2019-05-21T12:16:32.596Z,15.46
2019-05-21T12:17:32.654Z,15.53
2019-05-21T12:18:32.578Z,15.56
2019-05-21T12:19:32.572Z,15.57
2019-05-21T12:20:36.810Z,15.75
2019-05-21T12:21:32.534Z,15.80
2019-05-21T12:22:32.596Z,15.76
2019-05-21T12:23:32.518Z,16.02
2019-05-21T12:24:32.499Z,16.04
2019-05-21T12:25:32.527Z,16.04
2019-05-21T12:26:32.479Z,16.21
2019-05-21T12:27:32.488Z,16.09
2019-05-21T12:28:33.364Z,15.97
2019-05-21T12:29:34.390Z,15.90
2019-05-21T12:30:32.467Z,16.02
2019-05-21T12:31:32.428Z,16.08
2019-05-21T12:32:32.451Z,16.14
2019-05-21T12:33:35.073Z,16.23
2019-05-21T12:34:32.547Z,16.11
2019-05-21T12:35:32.380Z,16.27
2019-05-21T12:36:32.383Z,16.23
2019-05-21T12:37:33.992Z,15.97
2019-05-21T12:38:32.348Z,15.87
2019-05-21T12:39:32.335Z,15.92
2019-05-21T12:40:32.393Z,15.84
2019-05-21T12:41:32.323Z,15.87
2019-05-21T12:42:32.325Z,15.87
2019-05-21T12:43:32.301Z,16.11
2019-05-21T12:44:32.275Z,16.00
2019-05-21T12:45:32.352Z,16.11
2019-05-21T12:46:32.251Z,16.07
2019-05-21T12:47:32.288Z,16.15
2019-05-21T12:48:32.238Z,16.09
2019-05-21T12:49:32.253Z,16.20
2019-05-21T12:50:32.273Z,16.02
2019-05-21T12:51:32.202Z,15.80
2019-05-21T12:52:33.865Z,15.69
2019-05-21T12:53:32.181Z,15.67